Weather observations for the past three days for
Sheldon
Metric (Imperial)
Date Time (cdt) Wind (kph) Vis. (km) Weather Sky Cond. Temperature (ºC) Relative Humidity Wind Chill (°C) Heat Index (°C) Pressure Precipitation (cm)
Air Dwpt 6 hour altimeter (cm) sea level (mb) 1 hr 3 hr 6 hr
Max. Min.
03 16:15 NW 26 G 37 16.09 Fair CLR 22 0 23% 75.57 0.0
03 15:55 W 20 G 31 16.09 Fair CLR 23 -1 20% 75.62 0.0
03 15:35 N 22 G 39 16.09 Fair CLR 22 -1 22% 75.62 0.0
03 15:15 NW 19 G 39 16.09 Fair CLR 22 -1 22% 75.64 0.0
03 14:55 NW 30 16.09 Fair CLR 22 -1 22% 75.67 0.0
03 14:35 NW 30 G 39 16.09 Fair CLR 22 -1 22% 75.67 0.0
03 14:15 NW 22 G 31 16.09 Fair CLR 22 1 25% 75.69 0.0
03 13:35 NW 33 16.09 Fair and Breezy CLR 21 0 25% 75.72 0.0
03 13:15 N 17 G 43 16.09 Fair CLR 20 0 26% 75.74 0.0
03 12:55 N 28 G 41 16.09 Fair CLR 21 0 25% 75.74 0.0
03 12:35 NW 31 G 44 16.09 Fair CLR 21 1 27% 75.74 0.0
03 12:15 N 30 G 43 16.09 Fair CLR 20 1 28% 75.74 0.0
03 11:55 N 35 0.00 Fair and Breezy CLR 20 1 28% 75.74 0.0
03 11:35 N 39 G 54 16.09 Fair and Breezy CLR 20 2 30% 75.74 0.0
03 11:15 N 39 16.09 Fair and Breezy CLR 19 2 32% 75.77 0.0
03 10:55 N 33 G 44 16.09 Fair and Breezy CLR 18 2 34% 75.77 0.0
03 10:35 NW 33 G 44 16.09 Fair and Breezy CLR 18 2 34% 75.77 0.0
03 10:15 N 33 G 44 16.09 Fair and Breezy CLR 17 3 39% 75.77 0.0
03 09:55 N 31 G 43 16.09 Fair CLR 17 3 39% 75.77 0.0
03 09:35 N 33 16.09 Fair and Breezy CLR 16 3 42% 75.74 0.0
03 09:15 N 30 G 46 16.09 Fair CLR 16 3 42% 75.74 0.0
03 08:55 NW 31 16.09 Fair CLR 15 3 45% 75.74 0.0
03 08:35 N 30 16.09 Fair CLR 14 3 48% 75.72 0.0
03 08:15 NW 26 16.09 Fair CLR 13 3 51% 75.72 0.0
03 07:35 NW 15 16.09 Fair CLR 10 3 62% 8 75.69 0.0
03 07:15 NW 15 16.09 Fair CLR 9 3 66% 7 75.67 0.0
03 06:55 NW 11 16.09 Fair CLR 9 3 66% 8 75.64 0.0
03 06:35 NW 11 16.09 Fair CLR 8 2 66% 6 75.62 0.0
03 06:15 NW 15 16.09 Fair CLR 9 2 62% 7 75.59 0.0
03 05:55 NW 20 16.09 Fair CLR 10 2 58% 8 75.59 0.0
03 05:35 NW 15 16.09 NULL NULL 10 1 54% 8 75.57 0.0
03 05:15 W 17 16.09 Fair CLR 9 1 58% 7 75.57 0.0
03 04:55 SW 11 16.09 Fair CLR 9 0 54% 8 75.57 0.0
03 04:35 SW 11 16.09 Fair CLR 9 0 54% 8 75.54 0.0
03 04:15 SW 13 16.09 Fair CLR 10 0 50% 8 75.54 0.0
03 03:55 SW 17 16.09 Fair CLR 10 0 50% 8 75.54 0.0
03 03:35 SW 15 16.09 Fair CLR 11 -1 44% 75.54 0.0
03 03:15 SW 15 G 26 16.09 A Few Clouds FEW110 12 -1 41% 75.54 0.0
03 02:55 SW 20 G 33 0.00 Mostly Cloudy FEW070 BKN110 13 -1 38% 75.57 0.0
03 02:35 SW 28 16.09 Mostly Cloudy FEW047 BKN070 BKN110 13 -1 38% 75.54 0.0
03 02:15 S 20 G 31 16.09 NULL NULL 13 0 41% 75.57 0.0
03 01:55 S 28 16.09 Mostly Cloudy FEW025 SCT042 BKN065 13 0 41% 75.59 0.0
03 01:35 S 22 16.09 Mostly Cloudy FEW065 SCT090 BKN110 13 -1 38% 75.62 0.0
03 01:15 S 22 16.09 Mostly Cloudy FEW047 BKN090 BKN110 14 -1 36% 75.62 0.0
03 00:55 S 19 16.09 Mostly Cloudy SCT090 BKN110 15 -2 31% 75.67 0.0
03 00:35 SW 26 G 37 16.09 Overcast FEW035 SCT075 OVC110 16 -1 31% 75.69 0.0
03 00:15 SW 28 G 41 16.09 Mostly Cloudy FEW032 SCT060 BKN075 15 -1 34% 75.69 0.0
02 23:55 SW 24 G 35 16.09 Mostly Cloudy BKN110 15 -2 31% 75.69 0.0
02 23:35 S 26 G 41 16.09 Partly Cloudy SCT120 15 -2 31% 75.64 0.0
02 23:15 S 28 16.09 Mostly Cloudy BKN110 16 -3 27% 75.67 0.0
02 22:55 S 28 16.09 Partly Cloudy FEW075 SCT100 15 -2 31% 75.67 0.0
02 22:35 S 22 G 31 16.09 Mostly Cloudy FEW060 SCT075 BKN095 14 -2 33% 75.69 0.0
02 22:15 S 22 14.48 Overcast BKN100 OVC120 14 -2 33% 75.72 0.0
02 21:55 S 22 16.09 Overcast BKN100 OVC120 14 -2 33% 75.74 0.0
02 21:35 S 17 16.09 NULL NULL 14 -2 33% 75.77 0.0
02 21:15 S 17 16.09 Fair CLR 14 -2 33% 75.77 0.0
02 20:55 S 15 16.09 Fair CLR 15 -2 31% 75.79 0.0
02 20:35 S 15 16.09 Fair CLR 15 -2 31% 75.82 0.0
02 20:15 S 15 16.09 Fair CLR 17 -2 27% 75.82 0.0
02 19:55 SW 22 16.09 Fair CLR 18 -3 24% 75.82 0.0
02 19:35 S 19 16.09 Fair CLR 18 -2 26% 75.84 0.0
02 19:15 SW 24 16.09 Fair CLR 19 -3 22% 75.87 0.0
02 18:35 SW 19 16.09 A Few Clouds FEW120 19 -3 22% 75.9 0.0
02 18:15 SW 24 16.09 A Few Clouds FEW110 19 -3 22% 75.92 0.0
02 17:55 SW 15 G 30 16.09 Fair CLR 19 -3 22% 76 0.0
02 17:35 W 24 16.09 A Few Clouds FEW120 19 -4 21% 76 0.0
02 17:15 SW 30 16.09 A Few Clouds FEW120 20 -3 21% 76 0.0
02 16:55 SW 19 16.09 Fair CLR 19 -2 24% 76 0.0
02 16:35 SW 22 16.09 Fair CLR 19 -2 24% 76.02 0.0
02 16:15 SW 24 G 35 16.09 Fair CLR 20 -2 23% 76.07 0.0
02 15:35 SW 22 16.09 Fair CLR 19 -2 24% 76.12 0.0
02 15:15 W 20 G 30 16.09 Fair CLR 19 -2 24% 76.15 0.0
02 14:55 SW 15 G 26 16.09 Fair CLR 18 -2 26% 76.17 0.0
02 14:35 W 22 G 33 16.09 Fair CLR 18 -2 26% 76.17 0.0
02 14:15 W 19 16.09 Fair CLR 18 -2 26% 76.23 0.0
02 13:35 W 9 G 26 16.09 Fair CLR 17 -2 27% 76.25 0.0
02 13:15 W 20 16.09 Fair CLR 17 -2 27% 76.3 0.0
02 12:55 W 15 G 26 16.09 Fair CLR 16 -2 29% 76.3 0.0
02 12:35 W 17 G 30 16.09 Fair CLR 15 -2 31% 76.33 0.0
02 12:15 W 22 G 33 16.09 Fair CLR 15 -2 31% 76.35 0.0
02 11:55 W 19 G 30 16.09 Fair CLR 15 -2 31% 76.38 0.0
02 11:35 W 19 G 31 16.09 Fair CLR 14 -3 31% 76.38 0.0
02 11:15 SW 20 16.09 Fair CLR 14 -3 31% 76.4 0.0
02 10:55 W 17 16.09 Fair CLR 13 -3 33% 76.43 0.0
02 10:35 SW 17 16.09 Fair CLR 13 -3 33% 76.43 0.0
02 10:15 W 20 16.09 Fair CLR 12 -3 35% 76.43 0.0
02 09:55 SW 19 16.09 Fair CLR 11 -2 41% 76.45 0.0
02 09:35 SW 19 16.09 Fair CLR 11 -3 38% 76.45 0.0
02 08:55 SW 19 16.09 Fair CLR 9 -1 50% 7 76.48 0.0
02 08:35 SW 11 16.09 Fair CLR 7 -1 57% 5 76.48 0.0
02 07:55 Calm 16.09 Fair CLR 4 -1 70% 76.5 0.0
02 07:35 Calm 16.09 Fair CLR 2 2 100% 76.5 0.0
02 07:15 Calm 16.09 Fair CLR 0 0 100% 76.5 0.0
02 06:55 Calm 16.09 Fair CLR -1 -1 100% 76.5 0.0
02 06:35 Calm 16.09 Fair CLR -2 -2 100% 76.5 0.0
02 06:15 Calm 16.09 Fair CLR -2 -2 100% 76.5 0.0
02 05:55 Calm 16.09 Fair CLR -2 -2 100% 76.5 0.0
02 05:35 Calm 16.09 Fair CLR -2 -2 100% 76.5 0.0
02 05:15 Calm 16.09 Partly Cloudy FEW033 SCT041 -2 -2 100% 76.5 0.0
02 04:55 Calm 16.09 Mostly Cloudy BKN033 BKN044 -2 -2 100% 76.5 0.0
02 04:35 Calm 16.09 Mostly Cloudy BKN032 BKN044 -2 -2 100% 76.48 0.0
02 04:15 Calm 16.09 Overcast OVC032 -1 -1 100% 76.48 0.0
02 03:55 Calm 16.09 NULL NULL -1 -1 100% 76.48 0.0
02 03:15 Calm 16.09 Overcast BKN034 OVC042 -1 -1 100% 76.48 0.0
02 02:55 Calm 16.09 Overcast BKN034 OVC042 -1 -1 100% 76.48 0.0
02 02:35 Calm 16.09 Overcast BKN032 BKN039 OVC047 0 0 100% 76.48 0.0
02 02:15 Calm 16.09 Mostly Cloudy FEW040 BKN047 BKN055 1 1 100% 76.48 0.0
02 01:55 Calm 16.09 Mostly Cloudy BKN050 BKN055 0 0 100% 76.5 0.0
02 01:35 Calm 16.09 NULL NULL 0 0 100% 76.5 0.0
02 01:15 Calm 16.09 Mostly Cloudy BKN050 BKN055 1 -1 87% 76.5 0.0
02 00:55 Calm 16.09 Mostly Cloudy SCT055 BKN060 1 -1 87% 76.5 0.0
02 00:35 Calm 16.09 Mostly Cloudy SCT050 BKN060 2 -2 75% 76.5 0.0
02 00:15 Calm 16.09 Partly Cloudy FEW050 SCT060 2 -2 75% 76.5 0.0
01 23:55 Calm 16.09 Fair CLR 2 -2 75% 76.5 0.0
01 23:35 Calm 16.09 A Few Clouds FEW036 FEW043 FEW049 2 -2 75% 76.48 0.0
01 23:15 Calm 16.09 Partly Cloudy SCT039 SCT045 2 -2 75% 76.48 0.0
01 22:55 Calm 16.09 NULL NULL 2 -3 70% 76.48 0.0
01 22:35 Calm 16.09 NULL NULL 3 -3 65% 76.48 0.0
01 22:15 Calm 16.09 A Few Clouds FEW049 FEW055 3 -3 65% 76.48 0.0
01 21:55 NE 7 16.09 A Few Clouds FEW055 5 -3 57% 4 76.48 0.0
01 21:35 NE 9 16.09 Fair CLR 5 -3 57% 3 76.45 0.0
01 21:15 NE 11 16.09 NULL NULL 5 -3 57% 3 76.45 0.0
01 20:55 NE 7 16.09 Fair CLR 6 -4 49% 5 76.43 0.0
01 20:35 NE 9 16.09 Fair CLR 7 -4 46% 5 76.4 0.0
01 20:15 NE 13 16.09 Fair CLR 9 -4 40% 7 76.4 0.0
01 19:55 N 15 16.09 Fair CLR 10 -4 37% 8 76.38 0.0
01 19:35 N 19 16.09 A Few Clouds FEW075 10 -5 35% 8 76.38 0.0
01 19:15 N 20 16.09 Fair CLR 10 -5 35% 8 76.38 0.0
01 18:55 N 20 16.09 A Few Clouds FEW070 10 -6 32% 8 76.38 0.0
01 18:35 N 24 16.09 Mostly Cloudy BKN070 12 -5 30% 76.35 0.0
01 18:15 N 17 16.09 A Few Clouds FEW070 11 -5 32% 76.35 0.0
01 17:55 N 19 G 31 16.09 Partly Cloudy SCT070 12 -5 30% 76.35 0.0
01 17:35 N 24 16.09 Partly Cloudy SCT070 SCT080 12 -6 28% 76.35 0.0
01 17:15 N 17 G 30 16.09 A Few Clouds FEW070 11 -5 32% 76.35 0.0
01 16:55 N 24 16.09 Partly Cloudy SCT070 11 -5 32% 76.35 0.0
01 16:35 N 13 G 30 16.09 Mostly Cloudy BKN065 12 -6 28% 76.35 0.0
01 16:15 N 19 16.09 Mostly Cloudy BKN065 12 -4 33% 76.35 0.0
01 15:55 N 17 16.09 Mostly Cloudy BKN065 11 -6 30% 76.38 0.0
01 15:35 NE 19 16.09 Mostly Cloudy BKN060 11 -5 32% 76.38 0.0
01 15:15 N 22 16.09 Mostly Cloudy BKN060 11 -5 32% 76.38 0.0
01 14:55 N 20 G 30 16.09 Partly Cloudy SCT060 11 -5 32% 76.4 0.0
01 14:35 N 17 16.09 Partly Cloudy SCT060 10 -5 35% 8 76.4 0.0
01 14:15 N 20 16.09 Mostly Cloudy BKN060 10 -5 35% 8 76.4 0.0
01 13:55 N 17 16.09 Mostly Cloudy BKN060 10 -5 35% 8 76.4 0.0
01 13:35 N 15 G 26 16.09 Mostly Cloudy BKN060 9 -5 37% 7 76.4 0.0
01 13:15 N 19 G 31 16.09 Mostly Cloudy BKN060 9 -5 37% 7 76.4 0.0
01 12:55 N 20 G 33 16.09 Overcast OVC055 9 -5 37% 6 76.43 0.0
01 12:35 N 19 16.09 Mostly Cloudy BKN060 9 -5 37% 7 76.43 0.0
01 12:15 N 19 G 30 16.09 Mostly Cloudy BKN060 9 -5 37% 7 76.43 0.0
01 11:55 N 13 G 28 16.09 Mostly Cloudy BKN055 8 -6 37% 6 76.4 0.0
01 11:35 N 24 16.09 Mostly Cloudy SCT050 BKN060 8 -5 40% 5 76.4 0.0
01 11:15 NW 30 16.09 Mostly Cloudy BKN050 BKN055 8 -5 40% 4 76.4 0.0
01 10:55 NW 20 G 35 16.09 Partly Cloudy SCT047 7 -4 46% 4 76.4 0.0
01 10:35 N 24 G 33 16.09 Mostly Cloudy FEW046 BKN055 8 -2 50% 5 76.4 0.0
01 10:15 N 26 G 37 16.09 Mostly Cloudy BKN055 7 -2 53% 3 76.4 0.0
01 09:55 N 22 16.09 Mostly Cloudy BKN055 8 -2 50% 5 76.38 0.0
01 09:35 N 20 16.09 Mostly Cloudy BKN055 7 0 61% 4 76.38 0.0
01 09:15 N 19 16.09 Overcast OVC055 6 0 66% 3 76.4 0.0
01 08:55 N 17 16.09 Mostly Cloudy BKN055 5 1 76% 2 76.4 0.0
01 08:35 N 20 16.09 Mostly Cloudy BKN055 4 3 93% 0 76.38 0.0
01 08:15 N 17 16.09 A Few Clouds FEW060 4 4 100% 1 76.38 0.0
01 07:55 N 13 16.09 A Few Clouds FEW060 3 3 100% 0 76.35 0.0
01 07:35 NW 11 14.48 A Few Clouds FEW060 3 3 100% 0 76.35 0.0
01 07:15 NW 13 12.87 Fair CLR 2 2 100% -1 76.33 0.0
01 06:55 NW 11 11.27 Fair CLR 1 1 100% -2 76.3 0.0
01 06:35 NW 11 9.66 Fog/Mist CLR 1 1 100% -2 76.28 0.0
01 06:15 NW 15 9.66 Fog/Mist BKN065 1 1 100% -3 76.28 0.0
01 05:55 NW 11 11.27 Overcast OVC065 1 1 100% -2 76.28 0.0
01 05:35 NW 11 16.09 Overcast OVC065 1 1 100% -2 76.28 0.0
01 05:15 NW 9 16.09 Mostly Cloudy BKN065 2 2 100% -0 76.28 0.0
01 04:55 NW 9 16.09 Mostly Cloudy FEW047 BKN070 1 1 100% -2 76.28 0.0
01 04:35 NW 9 14.48 A Few Clouds FEW046 FEW070 1 1 100% -2 76.25 0.0
01 04:15 NW 6 16.09 Mostly Cloudy BKN070 BKN080 1 1 100% 76.25 0.0
01 03:55 NW 7 16.09 Partly Cloudy SCT065 1 1 100% -1 76.25 0.0
01 03:35 N 7 16.09 Fair CLR 2 2 100% 0 76.23 0.0
01 03:15 Calm 16.09 Partly Cloudy FEW060 SCT070 2 2 100% 76.23 0.0
01 02:55 Calm 16.09 NULL NULL 2 2 100% 76.25 0.0
01 02:35 Calm 16.09 NULL NULL 2 2 100% 76.25 0.0
01 02:15 Calm 16.09 Overcast OVC075 3 3 100% 76.25 0.0
01 01:55 Calm 16.09 Overcast FEW049 SCT060 OVC075 4 4 100% 76.28 0.0
01 01:35 N 7 16.09 Overcast SCT050 SCT055 OVC075 4 4 100% 2 76.28 0.0
01 01:15 N 7 16.09 Overcast BKN060 BKN065 OVC080 3 3 100% 1 76.28 0.0
01 00:55 Calm 16.09 Overcast SCT060 OVC070 3 3 100% 76.25 0.0
01 00:35 Calm 16.09 Mostly Cloudy BKN065 BKN075 4 3 93% 76.25 0.0
30 23:55 W 6 16.09 A Few Clouds FEW070 4 4 100% 76.25 0.0
30 23:35 W 7 16.09 Fair CLR 3 2 93% 1 76.25 0.0
30 23:15 W 9 16.09 NULL NULL 4 1 81% 2 76.25 0.0
30 22:55 SW 9 16.09 NULL NULL 5 1 76% 3 76.28 0.0
30 22:35 SW 7 16.09 Overcast BKN060 OVC070 6 1 71% 5 76.28 0.0
30 22:15 Calm 16.09 Overcast SCT050 BKN065 OVC075 7 1 66% 76.28 0.0
30 21:55 W 7 16.09 NULL NULL 7 2 71% 6 76.28 0.0
30 21:35 W 7 16.09 NULL NULL 7 1 66% 6 76.28 0.0
30 21:15 W 9 16.09 Overcast FEW049 FEW060 OVC070 6 0 66% 4 76.25 0.0
30 20:55 W 9 16.09 Overcast FEW055 BKN075 OVC085 7 0 61% 5 76.28 0.0
30 20:35 W 15 16.09 Overcast SCT075 OVC090 8 0 57% 6 76.28 0.0
30 20:15 W 22 G 37 16.09 Mostly Cloudy FEW075 BKN095 9 -1 50% 6 76.25 0.0
30 19:55 W 31 G 41 16.09 Mostly Cloudy FEW044 FEW055 BKN070 10 -2 43% 7 76.28 0.0
30 19:35 W 17 16.09 Overcast BKN070 BKN075 OVC090 11 -4 35% 76.25 0.0
30 19:15 NW 17 16.09 Mostly Cloudy FEW075 BKN090 11 -4 35% 76.23 0.0
30 18:35 NW 15 G 30 16.09 Partly Cloudy SCT070 SCT090 12 -4 33% 76.25 0.0
30 18:15 NW 15 16.09 Partly Cloudy SCT070 SCT080 11 -4 35% 76.25 0.0
30 17:55 NW 13 16.09 Partly Cloudy SCT065 SCT080 12 -4 33% 76.25 0.0
30 17:35 W 17 16.09 Partly Cloudy FEW080 SCT090 SCT110 11 -4 35% 76.28 0.0
30 17:15 NW 19 16.09 Mostly Cloudy FEW090 BKN110 11 -4 35% 76.28 0.0
Date Time (cdt) Wind (kph) Vis. (km) Weather Sky Cond. Air Dwpt Max. Min. Relative Humidity Wind Chill (°C) Heat Index (°C) altimeter (cm) sea level (mb) 1 hr 3 hr 6 hr
6 hour
Temperature (ºC) Pressure Precipitation (cm)